createdAt,value
2022-11-03T00:01:49.625Z,12.40
2022-11-03T00:06:48.556Z,12.30
2022-11-03T00:11:46.541Z,12.40
2022-11-03T00:16:45.439Z,12.40
2022-11-03T00:21:43.600Z,12.40
2022-11-03T00:26:41.528Z,12.40
2022-11-03T00:31:39.528Z,12.50
2022-11-03T00:36:37.379Z,12.50
2022-11-03T00:41:35.721Z,12.60
2022-11-03T00:46:34.572Z,12.60
2022-11-03T00:51:32.450Z,12.60
2022-11-03T00:56:30.785Z,12.60
2022-11-03T01:01:29.577Z,12.70
2022-11-03T01:06:28.495Z,12.70
2022-11-03T01:11:26.492Z,12.80
2022-11-03T01:16:24.470Z,12.80
2022-11-03T01:21:22.693Z,12.80
2022-11-03T01:26:21.470Z,12.80
2022-11-03T01:31:19.531Z,12.80
2022-11-03T01:36:17.709Z,12.70
2022-11-03T01:41:16.453Z,12.70
2022-11-03T01:46:14.645Z,12.70
2022-11-03T01:51:13.394Z,12.60
2022-11-03T01:56:14.720Z,12.60
2022-11-03T02:01:13.673Z,12.60
2022-11-03T02:06:12.782Z,12.60
2022-11-03T02:11:11.426Z,12.50
2022-11-03T02:16:09.410Z,12.50
2022-11-03T02:21:07.525Z,12.50
2022-11-03T02:26:05.471Z,12.40
2022-11-03T02:31:03.502Z,12.50
2022-11-03T02:36:01.504Z,12.40
2022-11-03T02:41:00.045Z,12.40
2022-11-03T02:45:58.674Z,12.40
2022-11-03T02:50:56.653Z,12.50
2022-11-03T02:55:54.776Z,12.40
2022-11-03T03:00:53.590Z,12.50
2022-11-03T03:05:52.585Z,12.50
2022-11-03T03:10:50.498Z,12.60
2022-11-03T03:15:48.794Z,12.60
2022-11-03T03:20:47.660Z,12.70
2022-11-03T03:25:45.836Z,12.70
2022-11-03T03:30:44.568Z,12.70
2022-11-03T03:35:42.666Z,12.70
2022-11-03T03:40:40.644Z,12.60
2022-11-03T03:45:38.614Z,12.60
2022-11-03T03:50:36.579Z,12.60
2022-11-03T03:55:34.506Z,12.60
2022-11-03T04:00:32.595Z,12.60
2022-11-03T04:05:30.869Z,12.60
2022-11-03T04:10:29.596Z,12.60
2022-11-03T04:15:27.765Z,12.60
2022-11-03T04:20:26.580Z,12.60
2022-11-03T04:25:24.649Z,12.60
2022-11-03T04:30:22.551Z,12.60
2022-11-03T04:35:20.644Z,12.70
2022-11-03T04:40:18.736Z,12.70
2022-11-03T04:45:17.639Z,12.80
2022-11-03T04:50:15.640Z,12.90
2022-11-03T04:55:13.790Z,12.90
2022-11-03T05:00:12.775Z,12.90
2022-11-03T05:05:10.606Z,12.90
2022-11-03T05:10:08.720Z,12.90
2022-11-03T05:15:06.709Z,12.90
2022-11-03T05:20:04.730Z,13.00
2022-11-03T05:25:02.555Z,13.00
2022-11-03T05:30:01.224Z,13.10
2022-11-03T05:34:59.741Z,13.10
2022-11-03T05:39:57.660Z,13.10
2022-11-03T05:44:55.637Z,13.10
2022-11-03T05:49:53.544Z,13.00
2022-11-03T05:54:51.824Z,13.00
2022-11-03T05:59:50.628Z,13.10
2022-11-03T06:04:48.653Z,13.10
2022-11-03T06:09:46.864Z,13.10
2022-11-03T06:14:45.810Z,13.10
2022-11-03T06:19:43.808Z,13.10
2022-11-03T06:24:41.649Z,13.00
2022-11-03T06:29:39.635Z,13.00
2022-11-03T06:34:37.757Z,13.00
2022-11-03T06:39:35.765Z,13.00
2022-11-03T06:44:33.811Z,13.00
2022-11-03T06:49:32.779Z,13.10
2022-11-03T06:54:30.634Z,13.10
2022-11-03T06:59:28.739Z,13.10
2022-11-03T07:04:26.734Z,13.10
2022-11-03T07:09:24.715Z,13.10
2022-11-03T07:14:22.787Z,13.10
2022-11-03T07:19:20.930Z,13.20
2022-11-03T07:24:19.769Z,13.10
2022-11-03T07:29:18.713Z,13.20
2022-11-03T07:34:16.672Z,13.30
2022-11-03T07:39:14.683Z,13.40
2022-11-03T07:44:12.658Z,13.50
2022-11-03T07:49:10.858Z,13.70
2022-11-03T07:54:09.731Z,13.80
2022-11-03T07:59:07.881Z,14.00
2022-11-03T08:04:06.954Z,14.10
2022-11-03T08:09:05.711Z,14.30
2022-11-03T08:14:03.909Z,14.60
2022-11-03T08:19:02.773Z,14.80
2022-11-03T08:24:00.838Z,14.90
2022-11-03T08:28:59.943Z,15.00
2022-11-03T08:33:58.691Z,15.00
2022-11-03T08:38:56.775Z,15.00
2022-11-03T08:43:54.850Z,15.00
2022-11-03T08:48:52.669Z,15.20
2022-11-03T08:53:50.772Z,15.20
2022-11-03T08:58:49.868Z,15.20
2022-11-03T09:03:48.755Z,15.40
2022-11-03T09:13:46.802Z,15.90
2022-11-03T09:18:44.655Z,16.20
2022-11-03T09:23:42.862Z,16.50
2022-11-03T09:28:41.757Z,16.70
2022-11-03T09:33:39.756Z,16.80
2022-11-03T09:38:37.735Z,16.70
2022-11-03T09:43:35.731Z,16.70
2022-11-03T09:48:33.811Z,16.80
2022-11-03T09:53:31.838Z,16.90
2022-11-03T09:58:29.680Z,17.00
2022-11-03T10:03:27.780Z,17.00
2022-11-03T10:08:25.686Z,17.20
2022-11-03T10:13:24.000Z,17.20
2022-11-03T10:18:22.966Z,17.30
2022-11-03T10:23:21.688Z,17.30
2022-11-03T10:28:19.944Z,17.50
2022-11-03T10:33:17.945Z,17.50
2022-11-03T10:38:15.785Z,17.50
2022-11-03T10:43:13.936Z,17.60
2022-11-03T10:48:12.843Z,17.70
2022-11-03T10:53:11.051Z,17.80
2022-11-03T10:58:10.063Z,17.80
2022-11-03T11:03:09.115Z,17.80
2022-11-03T11:08:07.931Z,17.80
2022-11-03T11:13:07.203Z,17.80
2022-11-03T11:18:05.889Z,17.70
2022-11-03T11:23:05.185Z,17.60
2022-11-03T11:28:03.778Z,17.50
2022-11-03T11:33:02.000Z,17.40
2022-11-03T11:38:00.704Z,17.40
2022-11-03T11:42:58.805Z,17.40
2022-11-03T11:47:56.755Z,17.60
2022-11-03T11:52:54.804Z,17.40
2022-11-03T11:57:52.800Z,17.20
2022-11-03T12:02:50.932Z,17.10
2022-11-03T12:07:49.943Z,16.90
2022-11-03T12:12:47.948Z,17.00
2022-11-03T12:17:45.846Z,17.00
2022-11-03T12:22:43.913Z,17.00
2022-11-03T12:27:41.882Z,16.90
2022-11-03T12:32:39.805Z,17.10
2022-11-03T12:37:38.057Z,17.20
2022-11-03T12:42:36.907Z,17.30
2022-11-03T12:47:35.062Z,17.20
2022-11-03T12:52:34.095Z,17.00
2022-11-03T12:57:32.782Z,17.00
2022-11-03T13:02:31.091Z,17.00
2022-11-03T13:07:34.500Z,17.00
2022-11-03T13:12:29.839Z,16.80
2022-11-03T13:17:32.293Z,16.80
2022-11-03T13:22:27.791Z,16.80
2022-11-03T13:27:25.821Z,16.60
2022-11-03T13:32:23.827Z,16.70
2022-11-03T13:37:21.887Z,16.70
2022-11-03T13:42:20.159Z,16.80
2022-11-03T13:47:24.841Z,16.90
2022-11-03T13:52:18.902Z,16.90
2022-11-03T14:07:16.886Z,16.70
2022-11-03T14:12:14.904Z,16.40
2022-11-03T14:17:13.078Z,16.40
2022-11-03T14:22:11.836Z,16.40
2022-11-03T14:27:09.966Z,16.30
2022-11-03T14:32:07.876Z,16.10
2022-11-03T14:37:06.014Z,15.90
2022-11-03T14:42:04.961Z,15.80
2022-11-03T14:47:03.135Z,15.60
2022-11-03T14:52:01.906Z,15.50
2022-11-03T14:56:59.831Z,15.30
2022-11-03T15:01:58.036Z,15.20
2022-11-03T15:06:57.131Z,15.00
2022-11-03T15:11:56.154Z,14.80
2022-11-03T15:16:54.962Z,14.60
2022-11-03T15:21:53.156Z,14.40
2022-11-03T15:26:52.164Z,14.20
2022-11-03T15:31:51.288Z,14.00
2022-11-03T15:36:49.966Z,14.00
2022-11-03T15:41:48.203Z,13.90
2022-11-03T15:46:46.986Z,13.80
2022-11-03T15:51:45.188Z,13.80
2022-11-03T15:56:44.301Z,13.80
2022-11-03T16:01:43.273Z,13.80
2022-11-03T16:11:42.048Z,13.70
2022-11-03T16:16:40.028Z,13.70
2022-11-03T16:21:38.028Z,13.60
2022-11-03T16:26:36.194Z,13.50
2022-11-03T16:31:35.019Z,13.50
2022-11-03T16:36:36.274Z,13.50
2022-11-03T16:41:35.082Z,13.40
2022-11-03T16:46:32.978Z,13.30
2022-11-03T16:51:31.112Z,13.20
2022-11-03T16:56:29.001Z,13.20
2022-11-03T17:01:26.993Z,13.20
2022-11-03T17:06:26.164Z,13.20
2022-11-03T17:11:24.315Z,13.20
2022-11-03T17:16:23.032Z,13.20
2022-11-03T17:21:21.030Z,13.20
2022-11-03T17:26:19.028Z,13.20
2022-11-03T17:31:17.002Z,13.30
2022-11-03T17:36:15.200Z,13.30
2022-11-03T17:41:15.091Z,13.30
2022-11-03T17:46:13.106Z,13.40
2022-11-03T17:51:10.991Z,13.30
2022-11-03T17:56:29.022Z,13.30
2022-11-03T18:01:09.095Z,13.30
2022-11-03T18:06:07.012Z,13.30
2022-11-03T18:11:04.987Z,13.30
2022-11-03T18:16:03.005Z,13.30
2022-11-03T18:21:01.050Z,13.40
2022-11-03T18:25:59.068Z,13.40
2022-11-03T18:30:57.044Z,13.40
2022-11-03T18:35:55.070Z,13.30
2022-11-03T18:40:53.133Z,13.30
2022-11-03T18:45:51.079Z,13.20
2022-11-03T18:50:50.106Z,13.20
2022-11-03T18:55:48.104Z,13.20
2022-11-03T19:00:46.091Z,13.30
2022-11-03T19:05:44.998Z,13.30
2022-11-03T19:10:43.097Z,13.30
2022-11-03T19:15:41.308Z,13.30
2022-11-03T19:20:39.988Z,13.30
2022-11-03T19:25:38.096Z,13.20
2022-11-03T19:30:36.310Z,13.10
2022-11-03T19:35:35.316Z,13.10
2022-11-03T19:40:33.998Z,13.10
2022-11-03T19:45:32.315Z,13.10
2022-11-03T19:50:31.090Z,13.10
2022-11-03T19:55:29.091Z,13.10
2022-11-03T20:00:30.177Z,13.10
2022-11-03T20:05:28.281Z,13.10
2022-11-03T20:10:26.918Z,13.00
2022-11-03T20:15:26.156Z,13.00
2022-11-03T20:20:24.035Z,13.10
2022-11-03T20:25:22.269Z,13.10
2022-11-03T20:30:20.209Z,13.10
2022-11-03T20:35:21.440Z,13.10
2022-11-03T20:40:18.411Z,13.10
2022-11-03T20:45:17.163Z,13.10
2022-11-03T20:50:15.357Z,13.10
2022-11-03T20:55:14.057Z,13.10
2022-11-03T21:00:12.334Z,13.10
2022-11-03T21:05:11.167Z,13.20
2022-11-03T21:10:09.131Z,13.10
2022-11-03T21:15:07.208Z,13.20
2022-11-03T21:20:05.301Z,13.20
2022-11-03T21:25:03.157Z,13.10
2022-11-03T21:30:01.265Z,13.10
2022-11-03T21:34:59.264Z,13.10
2022-11-03T21:39:57.245Z,13.20
2022-11-03T21:44:55.300Z,13.20
2022-11-03T21:49:54.356Z,13.20
2022-11-03T21:54:53.291Z,13.20
2022-11-03T21:59:53.051Z,13.10
2022-11-03T22:04:51.076Z,13.10
2022-11-03T22:09:49.297Z,13.10
2022-11-03T22:14:48.200Z,13.10
2022-11-03T22:19:46.271Z,13.10
2022-11-03T22:24:44.301Z,13.10
2022-11-03T22:29:42.149Z,13.10
2022-11-03T22:34:40.150Z,13.10
2022-11-03T22:39:38.112Z,13.20
2022-11-03T22:44:36.215Z,13.10
2022-11-03T22:49:34.199Z,13.10
2022-11-03T22:54:32.199Z,13.20
2022-11-03T22:59:30.213Z,13.00
2022-11-03T23:04:28.159Z,12.80
2022-11-03T23:09:26.351Z,12.50
2022-11-03T23:14:24.343Z,12.40
2022-11-03T23:19:22.327Z,12.30
2022-11-03T23:24:20.327Z,12.20
2022-11-03T23:29:18.235Z,12.20
2022-11-03T23:34:16.353Z,12.10
2022-11-03T23:39:15.206Z,12.10
2022-11-03T23:44:13.296Z,12.20
2022-11-03T23:49:11.173Z,12.10
2022-11-03T23:54:09.278Z,12.10
2022-11-03T23:59:07.229Z,12.10
